Time;durP1;ratioP1;P1;durP2;ratioP2;P2;SDS_P1;SDS_P2;PMS_P1;PMS_P2;Temp;Humidity;BMP_temperature;BMP_pressure;BME280_temperature;BME280_humidity;BME280_pressure;Samples;Min_cycle;Max_cycle;Signal;HPM_P1;HPM_P2
2023/09/13 00:01:42;;;;;;;7.47;1.90;;;;;;;;;;6175508;23;20024;-58
2023/09/13 00:04:11;;;;;;;6.50;1.90;;;;;;;;;;6190571;23;20024;-58
2023/09/13 00:06:40;;;;;;;7.78;1.95;;;;;;;;;;6180613;23;20012;-58
2023/09/13 00:09:09;;;;;;;8.20;1.88;;;;;;;;;;6189421;23;20048;-58
2023/09/13 00:11:37;;;;;;;7.65;2.10;;;;;;;;;;6181613;23;20634;-58
2023/09/13 00:14:05;;;;;;;6.53;1.87;;;;;;;;;;6182529;23;20091;-58
2023/09/13 00:16:33;;;;;;;7.20;1.77;;;;;;;;;;6179465;23;20023;-57
2023/09/13 00:19:03;;;;;;;7.65;2.05;;;;;;;;;;6188855;23;20046;-57
2023/09/13 00:21:31;;;;;;;6.55;1.73;;;;;;;;;;6181251;23;20027;-58
2023/09/13 00:24:00;;;;;;;9.82;1.70;;;;;;;;;;6192906;23;20086;-58
2023/09/13 00:26:28;;;;;;;7.37;2.50;;;;;;;;;;6177181;23;20090;-58
2023/09/13 00:28:57;;;;;;;9.80;2.35;;;;;;;;;;6191467;23;20475;-58
2023/09/13 00:31:31;;;;;;;7.32;1.90;;;;;;;;;;6183398;23;20031;-58
2023/09/13 00:33:59;;;;;;;10.68;2.60;;;;;;;;;;6180916;23;20315;-58
2023/09/13 00:36:26;;;;;;;8.82;2.38;;;;;;;;;;6188097;23;20016;-58
2023/09/13 00:38:54;;;;;;;8.43;2.50;;;;;;;;;;6175610;23;20013;-58
2023/09/13 00:41:23;;;;;;;6.32;2.67;;;;;;;;;;6187946;23;20016;-57
2023/09/13 00:43:51;;;;;;;9.05;2.55;;;;;;;;;;6182298;23;20569;-57
2023/09/13 00:46:19;;;;;;;9.27;2.38;;;;;;;;;;6188846;23;20021;-57
2023/09/13 00:48:48;;;;;;;8.43;2.03;;;;;;;;;;6182310;23;20023;-58
2023/09/13 00:51:15;;;;;;;9.83;2.23;;;;;;;;;;6186436;23;20021;-57
2023/09/13 00:53:44;;;;;;;8.40;2.50;;;;;;;;;;6183140;23;20021;-58
2023/09/13 00:56:13;;;;;;;10.45;2.65;;;;;;;;;;6187455;23;20020;-58
2023/09/13 00:58:42;;;;;;;8.48;2.80;;;;;;;;;;6180881;23;20189;-58
2023/09/13 01:01:12;;;;;;;8.60;2.28;;;;;;;;;;6188580;23;20013;-58
2023/09/13 01:03:41;;;;;;;8.50;2.40;;;;;;;;;;6180041;23;20463;-58
2023/09/13 01:06:10;;;;;;;9.30;2.25;;;;;;;;;;6191658;23;20017;-58
2023/09/13 01:08:41;;;;;;;7.18;2.05;;;;;;;;;;6184048;23;20531;-57
2023/09/13 01:11:10;;;;;;;7.93;2.47;;;;;;;;;;6185815;23;20436;-58
2023/09/13 01:13:39;;;;;;;8.38;2.60;;;;;;;;;;6182818;23;20519;-58
2023/09/13 01:16:14;;;;;;;7.20;2.33;;;;;;;;;;6181718;23;20615;-57
2023/09/13 01:18:45;;;;;;;9.70;3.10;;;;;;;;;;6189851;23;20086;-58
2023/09/13 01:21:22;;;;;;;7.30;2.83;;;;;;;;;;6180638;23;20009;-58
2023/09/13 01:23:59;;;;;;;11.25;3.28;;;;;;;;;;6186855;23;20574;-57
2023/09/13 01:26:44;;;;;;;10.05;3.40;;;;;;;;;;6179784;23;20074;-57
2023/09/13 01:29:14;;;;;;;12.97;3.10;;;;;;;;;;6178865;23;20083;-57
2023/09/13 01:31:42;;;;;;;10.70;3.03;;;;;;;;;;6179810;23;20013;-57
2023/09/13 01:34:10;;;;;;;13.80;3.72;;;;;;;;;;6181260;23;20435;-58
2023/09/13 01:36:38;;;;;;;9.82;3.63;;;;;;;;;;6186741;23;20019;-57
2023/09/13 01:39:06;;;;;;;10.52;3.38;;;;;;;;;;6185353;23;20020;-58
2023/09/13 01:41:37;;;;;;;9.37;3.57;;;;;;;;;;6185257;23;20447;-58
2023/09/13 01:44:07;;;;;;;9.82;4.15;;;;;;;;;;6178531;23;20071;-58
2023/09/13 01:46:40;;;;;;;7.90;3.50;;;;;;;;;;6183947;23;20012;-58
2023/09/13 01:49:09;;;;;;;10.57;3.55;;;;;;;;;;6187993;23;20466;-57
2023/09/13 01:51:37;;;;;;;10.43;3.40;;;;;;;;;;6192070;23;20704;-58
2023/09/13 01:54:05;;;;;;;13.83;3.77;;;;;;;;;;6182398;23;20100;-58
2023/09/13 01:56:33;;;;;;;9.68;3.42;;;;;;;;;;6182493;23;20013;-57
2023/09/13 01:59:01;;;;;;;10.23;3.78;;;;;;;;;;6189747;23;20016;-58
2023/09/13 02:01:29;;;;;;;13.10;3.92;;;;;;;;;;6144458;23;20388;-58
2023/09/13 02:03:58;;;;;;;10.43;3.85;;;;;;;;;;6186887;23;20017;-58
2023/09/13 02:06:26;;;;;;;12.30;4.63;;;;;;;;;;6195927;23;20344;-57
2023/09/13 02:08:53;;;;;;;9.90;3.90;;;;;;;;;;6185208;23;20023;-58
2023/09/13 02:11:22;;;;;;;13.00;3.90;;;;;;;;;;6194383;23;20017;-58
2023/09/13 02:13:51;;;;;;;11.63;4.22;;;;;;;;;;6189168;23;20016;-58
2023/09/13 02:16:20;;;;;;;11.73;3.90;;;;;;;;;;6148619;23;20016;-58
2023/09/13 02:18:48;;;;;;;9.63;3.90;;;;;;;;;;6189446;23;20431;-58
2023/09/13 02:21:17;;;;;;;13.80;3.90;;;;;;;;;;6196373;23;20041;-58
2023/09/13 02:23:45;;;;;;;8.23;3.05;;;;;;;;;;6181393;23;20019;-57
2023/09/13 02:26:20;;;;;;;9.95;3.80;;;;;;;;;;6195937;23;20363;-58
2023/09/13 02:28:47;;;;;;;11.35;3.90;;;;;;;;;;6193770;23;20023;-58
2023/09/13 02:31:21;;;;;;;8.83;3.40;;;;;;;;;;6187899;23;20016;-58
2023/09/13 02:33:49;;;;;;;12.55;3.83;;;;;;;;;;6188127;23;20021;-57
2023/09/13 02:36:18;;;;;;;8.25;3.38;;;;;;;;;;6196845;23;20023;-58
2023/09/13 02:38:45;;;;;;;11.13;3.67;;;;;;;;;;6154965;23;20195;-57
2023/09/13 02:41:13;;;;;;;10.85;3.60;;;;;;;;;;6195315;23;20032;-58
2023/09/13 02:43:41;;;;;;;10.93;3.73;;;;;;;;;;6161298;23;20059;-58
2023/09/13 02:46:09;;;;;;;12.85;4.38;;;;;;;;;;6194273;23;20086;-58
2023/09/13 02:48:40;;;;;;;7.63;3.42;;;;;;;;;;6189749;23;20013;-58
2023/09/13 02:51:11;;;;;;;10.45;3.67;;;;;;;;;;6190006;23;20075;-58
2023/09/13 02:53:40;;;;;;;10.43;3.67;;;;;;;;;;6181405;23;20439;-58
2023/09/13 02:56:09;;;;;;;10.90;3.33;;;;;;;;;;6192453;23;20024;-58
2023/09/13 02:58:37;;;;;;;9.60;3.38;;;;;;;;;;6159138;23;20017;-58
2023/09/13 03:01:10;;;;;;;8.63;3.30;;;;;;;;;;6187986;23;20024;-58
2023/09/13 03:03:39;;;;;;;11.30;3.35;;;;;;;;;;6192578;23;20017;-58
2023/09/13 03:06:07;;;;;;;9.13;3.03;;;;;;;;;;6187218;23;20059;-58
2023/09/13 03:08:35;;;;;;;11.60;3.20;;;;;;;;;;6189935;23;20013;-58
2023/09/13 03:11:14;;;;;;;9.43;3.58;;;;;;;;;;6190016;23;20479;-57
2023/09/13 03:13:41;;;;;;;14.75;3.60;;;;;;;;;;6181242;23;20071;-57
2023/09/13 03:16:11;;;;;;;9.48;3.40;;;;;;;;;;6193199;23;20083;-57
2023/09/13 03:18:39;;;;;;;11.93;3.10;;;;;;;;;;6192354;23;20091;-57
2023/09/13 03:21:07;;;;;;;8.57;3.30;;;;;;;;;;6183272;23;20013;-58
2023/09/13 03:23:38;;;;;;;10.95;3.58;;;;;;;;;;6189539;23;20012;-58
2023/09/13 03:26:15;;;;;;;11.02;3.33;;;;;;;;;;6167710;23;20622;-57
2023/09/13 03:28:44;;;;;;;11.95;3.50;;;;;;;;;;6185249;23;20016;-56
2023/09/13 03:31:12;;;;;;;11.32;3.90;;;;;;;;;;6187990;23;20017;-57
2023/09/13 03:33:40;;;;;;;10.37;3.93;;;;;;;;;;6146398;23;20102;-58
2023/09/13 03:36:09;;;;;;;12.20;3.35;;;;;;;;;;6189025;23;20020;-58
2023/09/13 03:38:38;;;;;;;12.27;3.67;;;;;;;;;;6175922;23;20020;-58
2023/09/13 03:41:06;;;;;;;10.20;3.45;;;;;;;;;;6187874;23;20021;-57
2023/09/13 03:43:35;;;;;;;9.10;3.05;;;;;;;;;;6190576;23;20020;-58
2023/09/13 03:46:05;;;;;;;9.40;3.53;;;;;;;;;;6185084;23;20035;-57
2023/09/13 03:48:33;;;;;;;9.00;3.50;;;;;;;;;;6189519;23;20171;-58
2023/09/13 03:51:01;;;;;;;12.25;3.00;;;;;;;;;;6198621;23;20019;-57
2023/09/13 03:53:32;;;;;;;10.40;3.28;;;;;;;;;;6176166;23;20036;-58
2023/09/13 03:56:00;;;;;;;14.27;3.75;;;;;;;;;;6193601;23;20024;-58
2023/09/13 03:58:29;;;;;;;7.30;3.60;;;;;;;;;;6185125;23;20024;-57
2023/09/13 04:00:58;;;;;;;10.35;3.67;;;;;;;;;;6192068;23;20107;-58
2023/09/13 04:03:26;;;;;;;10.35;3.75;;;;;;;;;;6183594;23;20051;-57
2023/09/13 04:05:54;;;;;;;9.57;3.28;;;;;;;;;;6178748;23;20020;-57
2023/09/13 04:08:23;;;;;;;12.35;3.13;;;;;;;;;;6163337;23;20012;-58
2023/09/13 04:10:51;;;;;;;14.23;4.30;;;;;;;;;;6195673;23;20024;-59
2023/09/13 04:13:19;;;;;;;8.70;3.83;;;;;;;;;;6192127;23;20455;-58
2023/09/13 04:15:46;;;;;;;11.35;3.75;;;;;;;;;;6163168;23;20881;-57
2023/09/13 04:18:15;;;;;;;8.20;3.30;;;;;;;;;;6194534;23;20024;-57
2023/09/13 04:20:45;;;;;;;10.30;3.50;;;;;;;;;;6174897;23;20038;-57
2023/09/13 04:23:12;;;;;;;11.37;3.87;;;;;;;;;;6195392;23;20017;-57
2023/09/13 04:25:40;;;;;;;9.75;3.90;;;;;;;;;;6191817;23;20040;-57
2023/09/13 04:28:08;;;;;;;11.85;3.50;;;;;;;;;;6186359;23;20070;-57
2023/09/13 04:30:36;;;;;;;10.15;3.80;;;;;;;;;;6184549;23;20205;-58
2023/09/13 04:33:06;;;;;;;10.30;3.88;;;;;;;;;;6190445;23;20017;-57
2023/09/13 04:35:36;;;;;;;15.13;4.00;;;;;;;;;;6148967;23;20487;-58
2023/09/13 04:38:04;;;;;;;12.10;4.22;;;;;;;;;;6183948;23;20467;-57
2023/09/13 04:40:32;;;;;;;10.10;3.40;;;;;;;;;;6184514;23;20766;-58
2023/09/13 04:43:18;;;;;;;11.18;2.97;;;;;;;;;;6194922;23;20463;-57
2023/09/13 04:45:45;;;;;;;10.55;3.55;;;;;;;;;;6180585;23;20103;-58
2023/09/13 04:48:14;;;;;;;12.20;3.53;;;;;;;;;;6191941;23;20020;-58
2023/09/13 04:50:42;;;;;;;9.27;3.60;;;;;;;;;;6174719;23;20012;-58
2023/09/13 04:53:10;;;;;;;10.23;3.65;;;;;;;;;;6183738;23;20020;-58
2023/09/13 04:55:39;;;;;;;9.07;3.35;;;;;;;;;;6188620;23;20071;-58
2023/09/13 04:58:06;;;;;;;10.43;2.92;;;;;;;;;;6188321;23;20020;-58
2023/09/13 05:00:34;;;;;;;9.97;2.63;;;;;;;;;;6188386;23;20027;-58
2023/09/13 05:03:22;;;;;;;8.90;2.95;;;;;;;;;;6186377;23;20697;-58
2023/09/13 05:05:51;;;;;;;10.27;3.65;;;;;;;;;;6188747;23;20051;-58
2023/09/13 05:08:19;;;;;;;9.82;3.20;;;;;;;;;;6189288;23;20023;-58
2023/09/13 05:10:51;;;;;;;9.10;3.08;;;;;;;;;;6191581;23;20455;-58
2023/09/13 05:13:19;;;;;;;11.53;3.60;;;;;;;;;;6178236;23;20021;-58
2023/09/13 05:15:47;;;;;;;15.95;3.38;;;;;;;;;;6181846;23;20051;-58
2023/09/13 05:18:15;;;;;;;9.68;3.05;;;;;;;;;;6187140;23;20095;-58
2023/09/13 05:20:44;;;;;;;9.48;3.55;;;;;;;;;;6178272;23;20020;-54
2023/09/13 05:23:13;;;;;;;12.27;3.78;;;;;;;;;;6186598;23;20436;-59
2023/09/13 05:25:44;;;;;;;9.40;2.70;;;;;;;;;;6173899;23;20016;-58
2023/09/13 05:28:12;;;;;;;8.93;3.55;;;;;;;;;;6181271;23;20051;-58
2023/09/13 05:30:40;;;;;;;12.75;3.60;;;;;;;;;;6157927;23;20052;-58
2023/09/13 05:33:08;;;;;;;9.60;3.30;;;;;;;;;;6181148;23;20017;-58
2023/09/13 05:35:37;;;;;;;10.43;4.00;;;;;;;;;;6180057;23;20392;-58
2023/09/13 05:38:05;;;;;;;13.43;3.80;;;;;;;;;;6184956;23;20071;-58
2023/09/13 05:40:34;;;;;;;9.18;3.08;;;;;;;;;;6170515;23;20020;-58
2023/09/13 05:43:02;;;;;;;10.82;3.97;;;;;;;;;;6184622;23;20091;-59
2023/09/13 05:45:30;;;;;;;7.90;3.17;;;;;;;;;;6185141;23;20024;-58
2023/09/13 05:48:00;;;;;;;10.20;3.90;;;;;;;;;;6179681;23;20527;-59
2023/09/13 05:50:28;;;;;;;8.00;3.07;;;;;;;;;;6187051;23;20031;-59
2023/09/13 05:52:58;;;;;;;8.90;3.42;;;;;;;;;;6173232;23;20017;-60
2023/09/13 05:55:26;;;;;;;14.85;3.70;;;;;;;;;;6183065;23;20016;-59
2023/09/13 05:57:56;;;;;;;12.95;3.20;;;;;;;;;;6146974;23;20024;-58
2023/09/13 06:00:24;;;;;;;9.73;3.33;;;;;;;;;;6189037;23;20025;-59
2023/09/13 06:02:52;;;;;;;8.97;3.10;;;;;;;;;;6175358;23;20115;-58
2023/09/13 06:05:20;;;;;;;8.55;3.42;;;;;;;;;;6186215;23;20374;-59
2023/09/13 06:07:48;;;;;;;9.52;3.17;;;;;;;;;;6184021;23;20017;-58
2023/09/13 06:10:15;;;;;;;14.02;3.58;;;;;;;;;;6184117;23;20021;-58
2023/09/13 06:12:43;;;;;;;14.73;3.67;;;;;;;;;;6184165;23;20027;-57
2023/09/13 06:15:12;;;;;;;11.67;3.03;;;;;;;;;;6185879;23;20542;-58
2023/09/13 06:17:40;;;;;;;9.73;2.90;;;;;;;;;;6182398;23;20016;-58
2023/09/13 06:20:08;;;;;;;9.15;3.20;;;;;;;;;;6184533;23;20048;-58
2023/09/13 06:22:36;;;;;;;12.07;3.08;;;;;;;;;;6182157;23;20035;-59
2023/09/13 06:25:05;;;;;;;11.90;2.85;;;;;;;;;;6184601;23;20478;-59
2023/09/13 06:27:39;;;;;;;9.47;2.90;;;;;;;;;;6181083;23;20021;-58
2023/09/13 06:30:07;;;;;;;13.23;3.25;;;;;;;;;;6191259;23;20016;-58
2023/09/13 06:32:36;;;;;;;16.55;2.88;;;;;;;;;;6174368;23;20024;-58
2023/09/13 06:35:10;;;;;;;17.40;3.30;;;;;;;;;;6187237;23;20059;-59
2023/09/13 06:37:43;;;;;;;9.70;2.83;;;;;;;;;;6173666;23;20336;-58
2023/09/13 06:40:14;;;;;;;7.77;2.37;;;;;;;;;;6180747;23;20388;-58
2023/09/13 06:42:42;;;;;;;9.82;2.38;;;;;;;;;;6171897;23;20444;-59
2023/09/13 06:45:27;;;;;;;9.52;2.60;;;;;;;;;;6183539;23;20016;-58
2023/09/13 06:48:00;;;;;;;8.05;2.55;;;;;;;;;;6179984;23;20020;-58
2023/09/13 06:50:29;;;;;;;9.60;2.17;;;;;;;;;;6187973;23;20082;-58
2023/09/13 06:53:17;;;;;;;13.20;2.67;;;;;;;;;;6176374;23;20074;-58
2023/09/13 06:55:47;;;;;;;10.18;2.67;;;;;;;;;;6187512;23;20041;-58
2023/09/13 06:58:18;;;;;;;11.07;2.17;;;;;;;;;;6175560;23;20036;-58
2023/09/13 07:00:48;;;;;;;13.73;2.90;;;;;;;;;;6184253;23;20020;-58
2023/09/13 07:03:38;;;;;;;9.75;2.15;;;;;;;;;;6178416;23;20075;-59
2023/09/13 07:06:07;;;;;;;10.43;2.20;;;;;;;;;;6153285;23;20390;-58
2023/09/13 07:08:35;;;;;;;11.55;2.45;;;;;;;;;;6139733;23;20083;-59
2023/09/13 07:11:03;;;;;;;10.35;2.20;;;;;;;;;;6184973;23;20040;-57
2023/09/13 07:13:30;;;;;;;8.73;1.73;;;;;;;;;;6186005;23;20024;-58
2023/09/13 07:15:58;;;;;;;8.35;1.80;;;;;;;;;;6184231;23;20551;-58
2023/09/13 07:18:26;;;;;;;9.00;2.20;;;;;;;;;;6183666;23;20040;-58
2023/09/13 07:20:56;;;;;;;7.25;1.90;;;;;;;;;;6186041;23;20016;-58
2023/09/13 07:23:24;;;;;;;8.05;2.17;;;;;;;;;;6184315;23;20013;-59
2023/09/13 07:25:51;;;;;;;10.50;2.28;;;;;;;;;;6183209;23;20020;-58
2023/09/13 07:28:20;;;;;;;12.68;2.35;;;;;;;;;;6186647;23;20031;-58
2023/09/13 07:30:48;;;;;;;11.87;2.13;;;;;;;;;;6182595;23;20028;-58
2023/09/13 07:33:15;;;;;;;11.80;2.10;;;;;;;;;;6188547;23;20682;-59
2023/09/13 07:35:43;;;;;;;13.35;2.67;;;;;;;;;;6149255;23;20017;-57
2023/09/13 07:38:13;;;;;;;13.07;2.67;;;;;;;;;;6185614;23;20020;-58
2023/09/13 07:40:41;;;;;;;9.27;1.80;;;;;;;;;;6178342;23;20009;-58
2023/09/13 07:43:09;;;;;;;9.20;2.37;;;;;;;;;;6181260;23;20040;-58
2023/09/13 07:45:36;;;;;;;14.30;2.50;;;;;;;;;;6190848;23;20024;-58
2023/09/13 07:48:05;;;;;;;11.10;2.58;;;;;;;;;;6159281;23;20474;-57
2023/09/13 07:50:33;;;;;;;12.27;2.30;;;;;;;;;;6156843;23;20016;-58
2023/09/13 07:53:01;;;;;;;14.07;2.28;;;;;;;;;;6179879;23;20016;-57
2023/09/13 07:55:34;;;;;;;6.20;2.00;;;;;;;;;;6185140;23;20075;-58
2023/09/13 07:58:03;;;;;;;8.77;2.03;;;;;;;;;;6180437;23;20579;-58
2023/09/13 08:00:31;;;;;;;10.93;2.40;;;;;;;;;;6190805;23;20021;-58
2023/09/13 08:02:59;;;;;;;8.57;2.10;;;;;;;;;;6180598;23;20724;-56
2023/09/13 08:05:27;;;;;;;11.93;3.10;;;;;;;;;;6183613;23;20040;-58
2023/09/13 08:07:55;;;;;;;11.93;3.10;;;;;;;;;;6187427;23;20024;-57
2023/09/13 08:10:24;;;;;;;10.45;2.38;;;;;;;;;;6162413;23;20020;-54
2023/09/13 08:12:55;;;;;;;9.68;2.22;;;;;;;;;;6144433;23;20067;-57
2023/09/13 08:15:23;;;;;;;8.27;2.60;;;;;;;;;;6154034;23;20074;-57
2023/09/13 08:18:09;;;;;;;7.70;2.22;;;;;;;;;;6166402;23;20008;-58
2023/09/13 08:20:37;;;;;;;9.90;3.30;;;;;;;;;;6127611;23;20019;-58
2023/09/13 08:23:05;;;;;;;9.88;2.20;;;;;;;;;;6113562;23;20224;-57
2023/09/13 08:25:33;;;;;;;11.30;2.88;;;;;;;;;;6154484;23;20443;-57
2023/09/13 08:28:04;;;;;;;11.55;2.47;;;;;;;;;;6127483;23;20432;-59
2023/09/13 08:30:32;;;;;;;8.57;2.10;;;;;;;;;;6170349;23;20020;-59
2023/09/13 08:33:00;;;;;;;13.30;2.90;;;;;;;;;;6157325;23;20067;-58
2023/09/13 08:35:27;;;;;;;9.35;2.50;;;;;;;;;;6165151;23;20017;-59
2023/09/13 08:37:55;;;;;;;11.35;2.20;;;;;;;;;;6155677;23;20019;-58
2023/09/13 08:40:24;;;;;;;9.63;2.55;;;;;;;;;;6152181;23;20876;-54
2023/09/13 08:42:53;;;;;;;11.02;2.00;;;;;;;;;;6170965;23;20868;-58
2023/09/13 08:45:26;;;;;;;8.27;2.30;;;;;;;;;;6163399;23;20099;-58
2023/09/13 08:48:01;;;;;;;9.93;2.30;;;;;;;;;;6169589;23;20028;-59
2023/09/13 08:50:30;;;;;;;6.75;2.13;;;;;;;;;;6161670;23;20462;-59
2023/09/13 08:52:59;;;;;;;11.50;2.40;;;;;;;;;;6167530;23;20560;-58
2023/09/13 08:55:27;;;;;;;8.75;2.28;;;;;;;;;;6165692;23;20460;-59
2023/09/13 08:57:56;;;;;;;11.13;2.47;;;;;;;;;;6166563;23;20017;-58
2023/09/13 09:00:26;;;;;;;8.60;2.40;;;;;;;;;;6127171;23;20377;-58
2023/09/13 09:02:55;;;;;;;7.75;2.15;;;;;;;;;;6137651;23;20321;-58
2023/09/13 09:05:29;;;;;;;10.13;2.33;;;;;;;;;;6127983;23;20027;-57
2023/09/13 09:07:58;;;;;;;12.10;2.67;;;;;;;;;;6136413;23;20020;-58
2023/09/13 09:10:26;;;;;;;12.57;2.50;;;;;;;;;;6118618;23;20024;-59
2023/09/13 09:12:55;;;;;;;12.45;2.22;;;;;;;;;;6130573;23;20021;-59
2023/09/13 09:15:25;;;;;;;10.57;2.30;;;;;;;;;;6124863;23;20021;-57
2023/09/13 09:17:54;;;;;;;11.63;2.45;;;;;;;;;;6110133;23;20025;-60
2023/09/13 09:20:24;;;;;;;10.38;2.30;;;;;;;;;;6108138;23;20514;-58
2023/09/13 09:22:51;;;;;;;9.87;2.50;;;;;;;;;;6109073;23;20419;-59
2023/09/13 09:25:26;;;;;;;6.90;2.00;;;;;;;;;;6135713;23;20035;-59
2023/09/13 09:27:54;;;;;;;10.15;2.20;;;;;;;;;;6131784;23;20024;-59
2023/09/13 09:30:31;;;;;;;7.80;2.20;;;;;;;;;;6114383;23;20360;-59
2023/09/13 09:33:03;;;;;;;11.15;2.50;;;;;;;;;;6109707;23;20025;-59
2023/09/13 09:35:31;;;;;;;9.00;1.97;;;;;;;;;;6139206;23;20017;-59
2023/09/13 09:38:00;;;;;;;10.30;2.08;;;;;;;;;;6121922;23;20017;-59
2023/09/13 09:40:36;;;;;;;10.18;1.70;;;;;;;;;;6134591;23;20045;-59
2023/09/13 09:43:06;;;;;;;9.20;1.33;;;;;;;;;;6118693;23;20031;-59
2023/09/13 09:45:35;;;;;;;5.68;1.52;;;;;;;;;;6146012;23;20017;-59
2023/09/13 09:48:03;;;;;;;7.30;1.93;;;;;;;;;;6135434;23;20025;-59
2023/09/13 09:50:38;;;;;;;7.78;1.67;;;;;;;;;;6123732;23;20028;-59
2023/09/13 09:53:10;;;;;;;9.82;2.25;;;;;;;;;;6143855;23;20316;-58
2023/09/13 09:55:38;;;;;;;6.65;1.55;;;;;;;;;;6154822;23;20424;-59
2023/09/13 09:58:05;;;;;;;7.45;1.42;;;;;;;;;;6144760;23;20025;-58
2023/09/13 10:00:45;;;;;;;7.57;1.17;;;;;;;;;;6167071;23;20439;-59
2023/09/13 10:03:20;;;;;;;7.93;1.63;;;;;;;;;;6183932;23;20103;-59
2023/09/13 10:05:51;;;;;;;13.07;2.10;;;;;;;;;;6158699;23;20078;-58
2023/09/13 10:08:20;;;;;;;11.82;1.65;;;;;;;;;;6184887;23;20725;-58
2023/09/13 10:10:51;;;;;;;8.63;1.73;;;;;;;;;;6182519;23;20012;-58
2023/09/13 10:13:19;;;;;;;6.57;1.50;;;;;;;;;;6182131;23;20020;-59
2023/09/13 10:15:48;;;;;;;7.03;1.58;;;;;;;;;;6186056;23;20020;-59
2023/09/13 10:18:17;;;;;;;7.50;1.70;;;;;;;;;;6161828;23;20395;-59
2023/09/13 10:20:45;;;;;;;8.82;1.67;;;;;;;;;;6165224;23;20023;-58
2023/09/13 10:23:15;;;;;;;8.68;1.63;;;;;;;;;;6179854;23;20132;-59
2023/09/13 10:25:47;;;;;;;8.93;1.93;;;;;;;;;;6180161;23;20408;-59
2023/09/13 10:28:15;;;;;;;10.80;1.70;;;;;;;;;;6182064;23;20240;-58
2023/09/13 10:30:45;;;;;;;9.65;2.42;;;;;;;;;;6166897;23;20016;-54
2023/09/13 10:33:16;;;;;;;6.10;1.88;;;;;;;;;;6190112;23;20020;-59
2023/09/13 10:35:46;;;;;;;10.15;1.48;;;;;;;;;;6160540;23;20023;-59
2023/09/13 10:38:17;;;;;;;6.87;1.37;;;;;;;;;;6166302;23;20013;-58
2023/09/13 10:40:46;;;;;;;12.82;1.98;;;;;;;;;;6188456;23;20047;-59
2023/09/13 10:43:14;;;;;;;5.85;1.55;;;;;;;;;;6174126;23;20063;-58
2023/09/13 10:45:42;;;;;;;7.05;2.25;;;;;;;;;;6176112;23;20027;-59
2023/09/13 10:48:10;;;;;;;7.45;1.58;;;;;;;;;;6174756;23;20342;-58
2023/09/13 10:50:39;;;;;;;8.87;1.77;;;;;;;;;;6182739;23;20020;-59
2023/09/13 10:53:07;;;;;;;6.70;1.35;;;;;;;;;;6177668;23;20506;-59
2023/09/13 10:55:35;;;;;;;7.75;1.45;;;;;;;;;;6180423;23;20784;-59
2023/09/13 10:58:04;;;;;;;8.00;1.30;;;;;;;;;;6177234;23;20051;-59
2023/09/13 11:00:32;;;;;;;9.48;1.67;;;;;;;;;;6182378;23;20020;-59
2023/09/13 11:03:00;;;;;;;11.73;2.00;;;;;;;;;;6150380;23;20042;-57
2023/09/13 11:05:28;;;;;;;6.00;1.30;;;;;;;;;;6170629;23;20040;-58
2023/09/13 11:07:57;;;;;;;7.80;1.70;;;;;;;;;;6173615;23;20095;-59
2023/09/13 11:10:30;;;;;;;10.10;2.20;;;;;;;;;;6156779;23;20059;-58
2023/09/13 11:13:10;;;;;;;7.68;2.15;;;;;;;;;;6162449;23;20052;-59
2023/09/13 11:15:48;;;;;;;7.53;1.80;;;;;;;;;;6168503;23;20281;-59
2023/09/13 11:18:16;;;;;;;7.15;1.67;;;;;;;;;;6176395;23;20017;-57
2023/09/13 11:20:45;;;;;;;10.85;2.38;;;;;;;;;;6152422;23;20021;-57
2023/09/13 11:23:18;;;;;;;9.75;2.47;;;;;;;;;;6079648;23;20588;-57
2023/09/13 11:25:49;;;;;;;7.32;1.92;;;;;;;;;;6131711;23;20025;-56
2023/09/13 11:28:34;;;;;;;5.70;1.63;;;;;;;;;;6175397;23;20099;-57
2023/09/13 11:31:03;;;;;;;9.30;2.00;;;;;;;;;;6174143;23;20469;-56
2023/09/13 11:33:31;;;;;;;9.25;2.10;;;;;;;;;;6180232;23;20096;-59
2023/09/13 11:35:59;;;;;;;10.15;1.98;;;;;;;;;;6183388;23;20020;-57
2023/09/13 11:38:30;;;;;;;8.50;2.10;;;;;;;;;;6175238;23;20096;-56
2023/09/13 11:40:59;;;;;;;5.93;1.60;;;;;;;;;;6185409;23;20357;-56
2023/09/13 11:43:27;;;;;;;7.82;1.90;;;;;;;;;;6173641;23;20019;-57
2023/09/13 11:46:02;;;;;;;9.88;1.90;;;;;;;;;;6174203;23;20096;-57
2023/09/13 11:48:39;;;;;;;11.80;1.98;;;;;;;;;;6162471;23;20477;-57
2023/09/13 11:51:23;;;;;;;8.68;1.58;;;;;;;;;;6177648;23;20083;-57
2023/09/13 11:53:53;;;;;;;12.27;2.23;;;;;;;;;;6185195;23;20067;-57
2023/09/13 11:56:32;;;;;;;8.40;1.75;;;;;;;;;;6169010;23;20016;-57
2023/09/13 11:59:13;;;;;;;8.02;2.28;;;;;;;;;;6186196;23;20017;-57
2023/09/13 12:01:45;;;;;;;10.95;2.67;;;;;;;;;;6145754;23;20038;-57
2023/09/13 12:04:15;;;;;;;9.02;2.03;;;;;;;;;;6123507;23;20017;-58
2023/09/13 12:06:50;;;;;;;11.67;2.87;;;;;;;;;;6176001;23;20466;-58
2023/09/13 12:09:23;;;;;;;8.25;1.88;;;;;;;;;;6169519;23;20020;-58
2023/09/13 12:11:57;;;;;;;7.22;1.70;;;;;;;;;;6165167;23;20023;-58
2023/09/13 12:14:33;;;;;;;7.13;2.22;;;;;;;;;;6140680;23;20826;-57
2023/09/13 12:17:04;;;;;;;8.20;2.22;;;;;;;;;;6171198;23;20016;-57
2023/09/13 12:19:35;;;;;;;8.73;1.90;;;;;;;;;;6160089;23;20176;-59
2023/09/13 12:22:03;;;;;;;10.25;1.90;;;;;;;;;;6168021;23;20435;-58
2023/09/13 12:24:32;;;;;;;9.23;2.55;;;;;;;;;;6154535;23;20444;-57
2023/09/13 12:26:59;;;;;;;7.70;2.20;;;;;;;;;;6167422;23;20048;-58
2023/09/13 12:29:27;;;;;;;7.22;1.90;;;;;;;;;;6151834;23;20051;-58
2023/09/13 12:31:59;;;;;;;8.50;1.53;;;;;;;;;;6166381;23;20021;-58
2023/09/13 12:34:26;;;;;;;9.18;2.20;;;;;;;;;;6165171;23;20023;-57
2023/09/13 12:36:55;;;;;;;8.73;2.03;;;;;;;;;;6173133;23;20112;-57
2023/09/13 12:39:23;;;;;;;8.85;1.98;;;;;;;;;;6160543;23;20047;-58
2023/09/13 12:41:52;;;;;;;7.60;2.53;;;;;;;;;;6166253;23;20017;-58
2023/09/13 12:44:20;;;;;;;7.87;1.70;;;;;;;;;;6168854;23;20016;-57
2023/09/13 12:46:51;;;;;;;7.68;2.15;;;;;;;;;;6172819;23;20012;-56
2023/09/13 12:49:19;;;;;;;6.78;2.20;;;;;;;;;;6158532;23;20407;-57
2023/09/13 12:51:47;;;;;;;8.45;2.38;;;;;;;;;;6162996;23;20419;-57
2023/09/13 12:54:14;;;;;;;11.05;2.70;;;;;;;;;;6169847;23;20055;-58
2023/09/13 12:56:42;;;;;;;7.23;2.33;;;;;;;;;;6165563;23;20017;-58
2023/09/13 12:59:14;;;;;;;11.05;2.65;;;;;;;;;;6148426;23;20024;-58
2023/09/13 13:01:44;;;;;;;7.70;2.63;;;;;;;;;;6141371;23;20424;-56
2023/09/13 13:04:13;;;;;;;10.15;2.40;;;;;;;;;;6167275;23;20012;-58
2023/09/13 13:06:54;;;;;;;10.70;2.13;;;;;;;;;;6167561;23;20050;-58
2023/09/13 13:09:22;;;;;;;9.40;2.60;;;;;;;;;;6163143;23;20043;-58
2023/09/13 13:11:50;;;;;;;7.63;2.53;;;;;;;;;;6160836;23;20565;-58
2023/09/13 13:14:20;;;;;;;6.80;1.95;;;;;;;;;;6167064;23;20016;-58
2023/09/13 13:16:53;;;;;;;7.25;2.30;;;;;;;;;;6135165;23;20377;-58
2023/09/13 13:19:27;;;;;;;5.97;1.90;;;;;;;;;;6168359;23;20031;-58
2023/09/13 13:21:56;;;;;;;9.20;2.73;;;;;;;;;;6127818;23;20103;-58
2023/09/13 13:24:38;;;;;;;7.88;2.92;;;;;;;;;;6165280;23;20020;-56
2023/09/13 13:27:07;;;;;;;7.75;2.20;;;;;;;;;;6176219;23;20095;-57
2023/09/13 13:29:36;;;;;;;8.95;2.17;;;;;;;;;;6155381;23;20027;-58
2023/09/13 13:32:05;;;;;;;8.95;2.63;;;;;;;;;;6169942;23;20063;-56
2023/09/13 13:34:33;;;;;;;7.50;2.70;;;;;;;;;;6162332;23;20044;-56
2023/09/13 13:37:01;;;;;;;6.07;1.90;;;;;;;;;;6170694;23;20017;-56
2023/09/13 13:39:29;;;;;;;7.57;2.40;;;;;;;;;;6154356;23;20641;-57
2023/09/13 13:41:56;;;;;;;8.55;2.80;;;;;;;;;;6162490;23;20522;-56
2023/09/13 13:44:24;;;;;;;8.00;2.40;;;;;;;;;;6166539;23;20234;-57
2023/09/13 13:46:53;;;;;;;8.53;2.13;;;;;;;;;;6165978;23;20040;-54
2023/09/13 13:49:21;;;;;;;8.02;2.47;;;;;;;;;;6170075;23;20058;-57
2023/09/13 13:51:49;;;;;;;6.97;2.90;;;;;;;;;;6080449;23;20021;-57
2023/09/13 13:54:18;;;;;;;8.45;2.70;;;;;;;;;;6139531;23;20021;-57
2023/09/13 13:56:47;;;;;;;8.57;2.88;;;;;;;;;;6168169;23;20094;-57
2023/09/13 13:59:17;;;;;;;6.07;2.70;;;;;;;;;;6157549;23;20036;-57
2023/09/13 14:01:45;;;;;;;6.90;2.50;;;;;;;;;;6148223;23;20079;-57
2023/09/13 14:04:14;;;;;;;6.55;2.50;;;;;;;;;;6159708;23;20013;-57
2023/09/13 14:06:45;;;;;;;9.25;2.83;;;;;;;;;;6135047;23;20217;-57
2023/09/13 14:09:15;;;;;;;9.32;3.22;;;;;;;;;;6141378;23;20490;-57
2023/09/13 14:11:49;;;;;;;9.83;2.83;;;;;;;;;;6151394;23;20462;-56
2023/09/13 14:14:18;;;;;;;10.23;3.05;;;;;;;;;;6156751;23;20447;-57
2023/09/13 14:17:08;;;;;;;8.10;3.22;;;;;;;;;;6169009;23;20021;-57
2023/09/13 14:19:38;;;;;;;9.02;2.70;;;;;;;;;;6126390;23;20016;-58
2023/09/13 14:22:05;;;;;;;7.57;2.85;;;;;;;;;;6135366;23;20047;-58
2023/09/13 14:24:33;;;;;;;7.67;2.87;;;;;;;;;;6160453;23;20024;-57
2023/09/13 14:27:01;;;;;;;7.43;2.50;;;;;;;;;;6177141;23;20048;-57
2023/09/13 14:29:29;;;;;;;8.05;2.83;;;;;;;;;;6153907;23;20046;-57
2023/09/13 14:32:00;;;;;;;8.10;3.10;;;;;;;;;;6154387;23;20028;-58
2023/09/13 14:34:28;;;;;;;9.95;2.88;;;;;;;;;;6170895;23;20052;-57
2023/09/13 14:36:57;;;;;;;7.33;2.63;;;;;;;;;;6147514;23;20017;-57
2023/09/13 14:39:25;;;;;;;7.28;2.63;;;;;;;;;;6166691;23;20020;-57
2023/09/13 14:41:53;;;;;;;6.68;2.70;;;;;;;;;;6151386;23;20794;-57
2023/09/13 14:44:20;;;;;;;8.65;3.00;;;;;;;;;;6169593;23;20423;-58
2023/09/13 14:46:48;;;;;;;9.45;3.00;;;;;;;;;;6155189;23;20452;-57
2023/09/13 14:49:19;;;;;;;9.40;3.03;;;;;;;;;;6159867;23;20024;-57
2023/09/13 14:51:47;;;;;;;7.60;2.47;;;;;;;;;;6162942;23;20324;-57
2023/09/13 14:54:17;;;;;;;7.72;2.60;;;;;;;;;;6164115;23;20017;-58